Patcona II — WDC2170 — position and weather

sailwx.info

Track history (hours):
 
Tides and Currents Weather Stations Pressure Air Temp Water Temp Dewpoint Dewpoint Depression Visibility Wind Speed Wind Dir Waves Ship Positions

Patcona II

Owner: Connolly-Pacific Co, long beach, CA. More information available from US FCC via Universal Licensing System and Coast Guard Vessel Documentation Center.

Last reported at 2017-Apr-25 02:06 UTC. Time now 2017-Apr-25 02:43 UTC.
Position N 29°43' W 095°16'.

Length 25 m.

Type: Ship. MMSI: 366988960.

Date/timePositionNaut miles runAvg speedWind from/ knotsBaromVisibWave heightAir tempDewpointWater temp
2017-Apr-25 02:06N 29°43' W 095°16'1 5.5
2017-Apr-25 01:51N 29°45' W 095°17'6 1.1
2017-Apr-24 20:48N 29°45' W 095°11'5 0.7
2017-Apr-24 13:16N 29°44' W 095°16'0 0.0
2017-Apr-24 12:58N 29°44' W 095°16'0 0.0
2017-Apr-24 12:28N 29°44' W 095°16'0 0.0
2017-Apr-24 11:58N 29°44' W 095°16'0 0.0
2017-Apr-24 11:28N 29°44' W 095°16'4 4.4
2017-Apr-24 10:28N 29°45' W 095°11'4 0.3
2017-Apr-23 20:59N 29°45' W 095°06'3 0.3
2017-Apr-23 10:33N 29°44' W 095°03'4 0.3
2017-Apr-22 21:15N 29°46' W 095°06'4 1.2
2017-Apr-22 17:38N 29°45' W 095°11'0 0.0
2017-Apr-22 14:53N 29°45' W 095°11'0 0.0
2017-Apr-22 14:29N 29°45' W 095°11'0 0.0
2017-Apr-22 13:29N 29°45' W 095°11'0 0.2
2017-Apr-22 12:57N 29°45' W 095°11'3 4.7
2017-Apr-22 12:14N 29°44' W 095°07'2 7.1
2017-Apr-22 11:55N 29°46' W 095°05'4 7.1
2017-Apr-22 11:21N 29°43' W 095°01'2 6.8
2017-Apr-22 11:00N 29°42' W 094°59'4 0.2
2017-Apr-21 12:16N 29°44' W 095°03'0 0.0
2017-Apr-21 12:00N 29°44' W 095°03'0 0.0
2017-Apr-21 11:30N 29°44' W 095°03'0 0.0
2017-Apr-21 11:00N 29°44' W 095°03'0 0.0
2017-Apr-21 10:30N 29°44' W 095°03'0 0.0
2017-Apr-21 10:00N 29°44' W 095°03'0 0.0
2017-Apr-21 09:30N 29°44' W 095°03'0 0.0
2017-Apr-21 09:00N 29°44' W 095°03'0 0.0
2017-Apr-21 08:30N 29°44' W 095°03'0 0.0
2017-Apr-21 07:57N 29°44' W 095°03'120735.2
2017-Apr-19 21:38N 33°46' W 118°13'0 0.0
2017-Apr-19 21:30N 33°46' W 118°13'0 0.0
2017-Apr-19 15:40N 33°46' W 118°13'0 0.0
2017-Apr-19 15:29N 33°46' W 118°13'0 0.0
2017-Apr-19 04:39N 33°46' W 118°13'0 0.0
2017-Apr-19 04:28N 33°46' W 118°13'0 0.0
2017-Apr-19 03:58N 33°46' W 118°13'0 0.0
2017-Apr-19 03:30N 33°46' W 118°13'0 0.0
2017-Apr-19 02:55N 33°46' W 118°13'0 0.0
2017-Apr-19 02:29N 33°46' W 118°13'0 0.0
2017-Apr-19 02:00N 33°46' W 118°13'0 0.0
2017-Apr-19 01:27N 33°46' W 118°13'0 0.0
2017-Apr-18 23:29N 33°46' W 118°13'0 0.0
2017-Apr-18 23:00N 33°46' W 118°13'0 0.0
2017-Apr-18 22:30N 33°46' W 118°13'0 0.0
2017-Apr-18 22:00N 33°46' W 118°13'0 0.0
2017-Apr-18 21:30N 33°46' W 118°13'0 0.0
2017-Apr-18 21:01N 33°46' W 118°13'0 0.0
2017-Apr-18 20:30N 33°46' W 118°13'0 0.0
2017-Apr-18 20:00N 33°46' W 118°13'0 0.0
2017-Apr-18 19:30N 33°46' W 118°13'0 0.0
2017-Apr-18 19:00N 33°46' W 118°13'0 0.0
2017-Apr-18 18:10N 33°46' W 118°13'0 0.0
2017-Apr-18 17:55N 33°46' W 118°13'0 0.0
2017-Apr-18 17:27N 33°46' W 118°13'0 0.0
2017-Apr-18 16:56N 33°46' W 118°13'0 0.0
2017-Apr-18 16:30N 33°46' W 118°13'0 0.0
2017-Apr-18 16:00N 33°46' W 118°13'0 0.0
2017-Apr-18 15:29N 33°46' W 118°13'0 0.0
2017-Apr-18 14:57N 33°46' W 118°13'0 0.0
2017-Apr-18 14:30N 33°46' W 118°13'0 0.0
2017-Apr-18 13:15N 33°46' W 118°13'0 0.0
2017-Apr-18 02:34N 33°46' W 118°13'0 0.0
2017-Apr-18 02:28N 33°46' W 118°13'0 0.0
2017-Apr-18 02:00N 33°46' W 118°13'0 0.0
2017-Apr-18 00:56N 33°46' W 118°13'0 0.0
2017-Apr-17 23:11N 33°46' W 118°13'0 0.0
2017-Apr-17 23:00N 33°46' W 118°13'0 0.0
2017-Apr-17 22:30N 33°46' W 118°13'12054832.7
2017-Apr-17 22:15N 29°45' W 095°04'12054805.9
2017-Apr-17 22:00N 33°46' W 118°13'120415646.0
2017-Apr-17 21:56N 29°45' W 095°06'12042864.5
2017-Apr-17 21:30N 33°46' W 118°13'0 0.0
2017-Apr-17 21:00N 33°46' W 118°13'0 0.0
2017-Apr-17 20:31N 33°46' W 118°13'0 0.0
2017-Apr-17 20:00N 33°46' W 118°13'0 0.0
2017-Apr-17 19:30N 33°46' W 118°13'0 0.0
2017-Apr-17 19:00N 33°46' W 118°13'0 0.0
2017-Apr-17 18:30N 33°46' W 118°13'0 0.0
2017-Apr-17 18:00N 33°46' W 118°13'0 0.0
2017-Apr-17 17:23N 33°46' W 118°13'0 0.0
2017-Apr-17 17:00N 33°46' W 118°13'0 0.0
2017-Apr-17 16:30N 33°46' W 118°13'0 0.0
2017-Apr-17 16:00N 33°46' W 118°13'0 0.0
2017-Apr-17 15:30N 33°46' W 118°13'0 0.0
2017-Apr-17 15:00N 33°46' W 118°13'0 0.0
2017-Apr-17 14:20N 33°46' W 118°13'0 0.0
2017-Apr-17 13:30N 33°46' W 118°13'0 0.0
2017-Apr-17 13:00N 33°46' W 118°13'0 0.0
2017-Apr-17 12:30N 33°46' W 118°13'120433595.9
2017-Apr-17 12:28N 29°45' W 095°06'12042609.2
2017-Apr-17 12:00N 33°46' W 118°13'0 0.0
2017-Apr-17 11:30N 33°46' W 118°13'0 0.0
2017-Apr-17 11:00N 33°46' W 118°13'0 0.0
2017-Apr-17 10:30N 33°46' W 118°13'0 0.0
2017-Apr-17 09:59N 33°46' W 118°13'0 0.0
2017-Apr-17 09:30N 33°46' W 118°13'0 0.0
2017-Apr-17 09:00N 33°46' W 118°13'0 0.0
2017-Apr-17 08:30N 33°46' W 118°13'0 0.0
2017-Apr-17 08:00N 33°46' W 118°13'120010906.4
2017-Apr-17 07:54N 29°45' W 095°11'12003082.8
2017-Apr-17 07:30N 33°46' W 118°13'11997879.8
2017-Apr-17 07:21N 29°45' W 095°11'11993421.7
2017-Apr-17 07:00N 33°46' W 118°13'119863446.7
2017-Apr-17 06:59N 29°43' W 095°13'11982505.4
2017-Apr-17 06:30N 33°46' W 118°13'0 0.0
2017-Apr-17 06:01N 33°46' W 118°13'0 0.0
2017-Apr-17 05:30N 33°46' W 118°13'0 0.0
2017-Apr-17 05:00N 33°46' W 118°13'0 0.0
2017-Apr-17 04:30N 33°46' W 118°13'0 0.0
2017-Apr-17 04:00N 33°46' W 118°13'0 0.0
2017-Apr-17 03:30N 33°46' W 118°13'0 0.0
2017-Apr-17 03:00N 33°46' W 118°13'0 0.0
2017-Apr-17 02:30N 33°46' W 118°13'0 0.0
2017-Apr-17 02:00N 33°46' W 118°13'0 0.0
2017-Apr-17 01:30N 33°46' W 118°13'0 0.0
2017-Apr-17 01:00N 33°46' W 118°13'0 0.0
2017-Apr-17 00:30N 33°46' W 118°13'0 0.0
2017-Apr-17 00:00N 33°46' W 118°13'11982402.4
2017-Apr-16 23:31N 29°44' W 095°14'1198308023.4
2017-Apr-16 23:30N 33°46' W 118°13'1198179683.1
2017-Apr-16 23:30N 29°44' W 095°14'11982441.9
2017-Apr-16 23:00N 33°46' W 118°13'120026341.1
2017-Apr-16 22:58N 29°45' W 095°11'12002637.3
2017-Apr-16 22:30N 33°46' W 118°13'12049802.4
2017-Apr-16 22:23N 29°44' W 095°07'12043195.2
2017-Apr-16 22:00N 33°46' W 118°13'0 0.0
2017-Apr-16 21:30N 33°46' W 118°13'0 0.0
2017-Apr-16 21:00N 33°46' W 118°13'0 0.0
2017-Apr-16 20:30N 33°46' W 118°13'0 0.0
2017-Apr-16 20:00N 33°46' W 118°13'0 0.0
2017-Apr-16 19:31N 33°46' W 118°13'0 0.0
2017-Apr-16 19:00N 33°46' W 118°13'0 0.0
2017-Apr-16 18:30N 33°46' W 118°13'0 0.0
2017-Apr-16 18:00N 33°46' W 118°13'0 0.0
2017-Apr-16 17:28N 33°46' W 118°13'0 0.0
2017-Apr-16 17:00N 33°46' W 118°13'0 0.0
2017-Apr-16 16:30N 33°46' W 118°13'0 0.0
2017-Apr-16 16:00N 33°46' W 118°13'0 0.0
2017-Apr-16 15:30N 33°46' W 118°13'0 0.0
2017-Apr-16 15:00N 33°46' W 118°13'0 0.0
2017-Apr-16 14:30N 33°46' W 118°13'0 0.0
2017-Apr-16 13:28N 33°46' W 118°13'0 0.0
2017-Apr-16 13:00N 33°46' W 118°13'0 0.0
2017-Apr-16 12:30N 33°46' W 118°13'0 0.0
2017-Apr-16 12:00N 33°46' W 118°13'0 0.0
2017-Apr-16 11:30N 33°46' W 118°13'0 0.0
2017-Apr-16 11:00N 33°46' W 118°13'0 0.0
2017-Apr-16 10:30N 33°46' W 118°13'0 0.0
2017-Apr-16 10:00N 33°46' W 118°13'0 0.0
2017-Apr-16 09:30N 33°46' W 118°13'0 0.0
2017-Apr-16 09:00N 33°46' W 118°13'0 0.0
2017-Apr-16 08:30N 33°46' W 118°13'0 0.0
2017-Apr-16 08:00N 33°46' W 118°13'0 0.0
2017-Apr-16 07:30N 33°46' W 118°13'0 0.0
2017-Apr-16 07:00N 33°46' W 118°13'0 0.0
2017-Apr-16 06:30N 33°46' W 118°13'0 0.0
2017-Apr-16 05:59N 33°46' W 118°13'0 0.0
2017-Apr-16 05:27N 33°46' W 118°13'0 0.0
2017-Apr-16 04:12N 33°46' W 118°13'0 0.0
2017-Apr-16 03:59N 33°46' W 118°13'12038461.9
2017-Apr-16 03:50N 29°46' W 095°06'12033083.6
2017-Apr-16 03:27N 33°46' W 118°13'12032728.0
2017-Apr-16 03:01N 29°47' W 095°06'1203361005.0
2017-Apr-16 03:00N 33°46' W 118°13'12042362.3
2017-Apr-16 02:30N 29°45' W 095°06'120449825.9
2017-Apr-16 02:28N 33°46' W 118°13'0 0.0
2017-Apr-16 02:00N 33°46' W 118°13'1202120189.0
2017-Apr-16 02:00N 29°44' W 095°09'12022422.6
2017-Apr-16 01:30N 33°46' W 118°13'0 0.0
2017-Apr-16 01:00N 33°46' W 118°13'0 0.0
2017-Apr-16 00:27N 33°46' W 118°13'0 0.0
2017-Apr-15 23:59N 33°46' W 118°13'0 0.0
2017-Apr-15 23:30N 33°46' W 118°13'0 0.0
2017-Apr-15 23:00N 33°46' W 118°13'0 0.0
2017-Apr-15 22:30N 33°46' W 118°13'0 0.0
2017-Apr-15 22:00N 33°46' W 118°13'0 0.0
2017-Apr-15 21:30N 33°46' W 118°13'0 0.0
2017-Apr-15 21:01N 33°46' W 118°13'0 0.0
2017-Apr-15 20:30N 33°46' W 118°13'0 0.0
2017-Apr-15 20:00N 33°46' W 118°13'0 0.0
2017-Apr-15 19:30N 33°46' W 118°13'0 0.0
2017-Apr-15 19:00N 33°46' W 118°13'0 0.0
2017-Apr-15 18:30N 33°46' W 118°13'0 0.0
2017-Apr-15 18:00N 33°46' W 118°13'0 0.0
2017-Apr-15 17:30N 33°46' W 118°13'12018750.1
2017-Apr-15 17:21N 29°45' W 095°10'12012906.9
2017-Apr-15 16:57N 33°46' W 118°13'120018548.3
2017-Apr-15 16:53N 29°45' W 095°10'12002592.5
2017-Apr-15 16:25N 33°46' W 118°13'120038564.1
2017-Apr-15 16:23N 29°45' W 095°11'12003026.8
2017-Apr-15 15:59N 33°46' W 118°13'119913360.4
2017-Apr-15 15:54N 29°44' W 095°13'11993045.5
2017-Apr-15 15:30N 33°46' W 118°13'1196307653.8
2017-Apr-15 15:30N 29°44' W 095°15'2 3.9
2017-Apr-15 15:00N 29°45' W 095°17'1195148300.8
2017-Apr-15 15:00N 33°46' W 118°13'11942428.0
2017-Apr-15 14:30N 29°45' W 095°17'1194477781.0
2017-Apr-15 14:30N 33°46' W 118°13'0 0.0
2017-Apr-15 13:30N 33°46' W 118°13'119438053.4
2017-Apr-15 13:28N 29°45' W 095°17'11942550.4
2017-Apr-15 13:00N 33°46' W 118°13'119420000.1
2017-Apr-15 12:57N 29°45' W 095°17'11942694.2
2017-Apr-15 12:30N 33°46' W 118°13'119416288.0
2017-Apr-15 12:26N 29°45' W 095°17'11942819.7
2017-Apr-15 12:00N 33°46' W 118°13'11948704.5
2017-Apr-15 11:52N 29°45' W 095°17'0 0.0
2017-Apr-15 11:30N 29°45' W 095°17'1194614287.4
2017-Apr-15 11:30N 33°46' W 118°13'0 0.0
2017-Apr-15 11:00N 33°46' W 118°13'1194172001.2
2017-Apr-15 11:00N 29°45' W 095°17'11942423.9
2017-Apr-15 10:31N 33°46' W 118°13'119417479.8
2017-Apr-15 10:26N 29°45' W 095°17'11942763.5
2017-Apr-15 10:00N 33°46' W 118°13'11941433343.1
2017-Apr-15 10:00N 29°45' W 095°17'11942394.2
2017-Apr-15 09:30N 33°46' W 118°13'11948531.8
2017-Apr-15 09:22N 29°45' W 095°17'11943262.5
2017-Apr-15 09:00N 33°46' W 118°13'0 0.0
2017-Apr-15 08:30N 33°46' W 118°13'0 0.0
2017-Apr-15 08:00N 33°46' W 118°13'0 0.0
2017-Apr-15 07:30N 33°46' W 118°13'0 0.0
2017-Apr-15 07:00N 33°46' W 118°13'11947239.1
2017-Apr-15 06:50N 29°45' W 095°17'0 0.1
2017-Apr-15 06:30N 29°45' W 095°17'119534692.6
2017-Apr-15 06:28N 33°44' W 118°14'1 2.4
2017-Apr-15 06:00N 33°43' W 118°15'1196253243.0
2017-Apr-15 06:00N 29°44' W 095°17'11952412.2
2017-Apr-15 05:30N 33°41' W 118°14'119918205.7
2017-Apr-15 05:26N 29°44' W 095°13'11982759.8
2017-Apr-15 05:00N 33°38' W 118°14'120115602.7
2017-Apr-15 04:56N 29°45' W 095°10'12012819.2
2017-Apr-15 04:30N 33°35' W 118°14'3 6.3
2017-Apr-15 04:00N 33°32' W 118°15'3 6.2
2017-Apr-15 03:31N 33°29' W 118°16'3 6.4
2017-Apr-15 03:00N 33°26' W 118°17'3 6.5
2017-Apr-15 02:30N 33°23' W 118°17'  
Track history (hours):
 
Tides and Currents Weather Stations Pressure Air Temp Water Temp Dewpoint Dewpoint Depression Visibility Wind Speed Wind Dir Waves Ship Positions

Patcona II

Owner: Connolly-Pacific Co, long beach, CA. More information available from US FCC via Universal Licensing System and Coast Guard Vessel Documentation Center.

Last reported at 2017-Apr-25 02:06 UTC. Time now 2017-Apr-25 02:43 UTC.
Position N 29°43' W 095°16'.

Length 25 m.

Type: Ship. MMSI: 366988960.

Date/timePositionNaut miles runAvg speedWind from/ knotsBaromVisibWave heightAir tempDewpointWater temp
2017-Apr-25 02:06N 29°43' W 095°16'1 5.5
2017-Apr-25 01:51N 29°45' W 095°17'6 1.1
2017-Apr-24 20:48N 29°45' W 095°11'5 0.7
2017-Apr-24 13:16N 29°44' W 095°16'0 0.0
2017-Apr-24 12:58N 29°44' W 095°16'0 0.0
2017-Apr-24 12:28N 29°44' W 095°16'0 0.0
2017-Apr-24 11:58N 29°44' W 095°16'0 0.0
2017-Apr-24 11:28N 29°44' W 095°16'4 4.4
2017-Apr-24 10:28N 29°45' W 095°11'4 0.3
2017-Apr-23 20:59N 29°45' W 095°06'3 0.3
2017-Apr-23 10:33N 29°44' W 095°03'4 0.3
2017-Apr-22 21:15N 29°46' W 095°06'4 1.2
2017-Apr-22 17:38N 29°45' W 095°11'0 0.0
2017-Apr-22 14:53N 29°45' W 095°11'0 0.0
2017-Apr-22 14:29N 29°45' W 095°11'0 0.0
2017-Apr-22 13:29N 29°45' W 095°11'0 0.2
2017-Apr-22 12:57N 29°45' W 095°11'3 4.7
2017-Apr-22 12:14N 29°44' W 095°07'2 7.1
2017-Apr-22 11:55N 29°46' W 095°05'4 7.1
2017-Apr-22 11:21N 29°43' W 095°01'2 6.8
2017-Apr-22 11:00N 29°42' W 094°59'4 0.2
2017-Apr-21 12:16N 29°44' W 095°03'0 0.0
2017-Apr-21 12:00N 29°44' W 095°03'0 0.0
2017-Apr-21 11:30N 29°44' W 095°03'0 0.0
2017-Apr-21 11:00N 29°44' W 095°03'0 0.0
2017-Apr-21 10:30N 29°44' W 095°03'0 0.0
2017-Apr-21 10:00N 29°44' W 095°03'0 0.0
2017-Apr-21 09:30N 29°44' W 095°03'0 0.0
2017-Apr-21 09:00N 29°44' W 095°03'0 0.0
2017-Apr-21 08:30N 29°44' W 095°03'0 0.0
2017-Apr-21 07:57N 29°44' W 095°03'120735.2
2017-Apr-19 21:38N 33°46' W 118°13'0 0.0
2017-Apr-19 21:30N 33°46' W 118°13'0 0.0
2017-Apr-19 15:40N 33°46' W 118°13'0 0.0
2017-Apr-19 15:29N 33°46' W 118°13'0 0.0
2017-Apr-19 04:39N 33°46' W 118°13'0 0.0
2017-Apr-19 04:28N 33°46' W 118°13'0 0.0
2017-Apr-19 03:58N 33°46' W 118°13'0 0.0
2017-Apr-19 03:30N 33°46' W 118°13'0 0.0
2017-Apr-19 02:55N 33°46' W 118°13'0 0.0
2017-Apr-19 02:29N 33°46' W 118°13'0 0.0
2017-Apr-19 02:00N 33°46' W 118°13'0 0.0
2017-Apr-19 01:27N 33°46' W 118°13'0 0.0
2017-Apr-18 23:29N 33°46' W 118°13'0 0.0
2017-Apr-18 23:00N 33°46' W 118°13'0 0.0
2017-Apr-18 22:30N 33°46' W 118°13'0 0.0
2017-Apr-18 22:00N 33°46' W 118°13'0 0.0
2017-Apr-18 21:30N 33°46' W 118°13'0 0.0
2017-Apr-18 21:01N 33°46' W 118°13'0 0.0
2017-Apr-18 20:30N 33°46' W 118°13'0 0.0
2017-Apr-18 20:00N 33°46' W 118°13'0 0.0
2017-Apr-18 19:30N 33°46' W 118°13'0 0.0
2017-Apr-18 19:00N 33°46' W 118°13'0 0.0
2017-Apr-18 18:10N 33°46' W 118°13'0 0.0
2017-Apr-18 17:55N 33°46' W 118°13'0 0.0
2017-Apr-18 17:27N 33°46' W 118°13'0 0.0
2017-Apr-18 16:56N 33°46' W 118°13'0 0.0
2017-Apr-18 16:30N 33°46' W 118°13'0 0.0
2017-Apr-18 16:00N 33°46' W 118°13'0 0.0
2017-Apr-18 15:29N 33°46' W 118°13'0 0.0
2017-Apr-18 14:57N 33°46' W 118°13'0 0.0
2017-Apr-18 14:30N 33°46' W 118°13'0 0.0
2017-Apr-18 13:15N 33°46' W 118°13'0 0.0
2017-Apr-18 02:34N 33°46' W 118°13'0 0.0
2017-Apr-18 02:28N 33°46' W 118°13'0 0.0
2017-Apr-18 02:00N 33°46' W 118°13'0 0.0
2017-Apr-18 00:56N 33°46' W 118°13'0 0.0
2017-Apr-17 23:11N 33°46' W 118°13'0 0.0
2017-Apr-17 23:00N 33°46' W 118°13'0 0.0
2017-Apr-17 22:30N 33°46' W 118°13'12054832.7
2017-Apr-17 22:15N 29°45' W 095°04'12054805.9
2017-Apr-17 22:00N 33°46' W 118°13'120415646.0
2017-Apr-17 21:56N 29°45' W 095°06'12042864.5
2017-Apr-17 21:30N 33°46' W 118°13'0 0.0
2017-Apr-17 21:00N 33°46' W 118°13'0 0.0
2017-Apr-17 20:31N 33°46' W 118°13'0 0.0
2017-Apr-17 20:00N 33°46' W 118°13'0 0.0
2017-Apr-17 19:30N 33°46' W 118°13'0 0.0
2017-Apr-17 19:00N 33°46' W 118°13'0 0.0
2017-Apr-17 18:30N 33°46' W 118°13'0 0.0
2017-Apr-17 18:00N 33°46' W 118°13'0 0.0
2017-Apr-17 17:23N 33°46' W 118°13'0 0.0
2017-Apr-17 17:00N 33°46' W 118°13'0 0.0
2017-Apr-17 16:30N 33°46' W 118°13'0 0.0
2017-Apr-17 16:00N 33°46' W 118°13'0 0.0
2017-Apr-17 15:30N 33°46' W 118°13'0 0.0
2017-Apr-17 15:00N 33°46' W 118°13'0 0.0
2017-Apr-17 14:20N 33°46' W 118°13'0 0.0
2017-Apr-17 13:30N 33°46' W 118°13'0 0.0
2017-Apr-17 13:00N 33°46' W 118°13'0 0.0
2017-Apr-17 12:30N 33°46' W 118°13'120433595.9
2017-Apr-17 12:28N 29°45' W 095°06'12042609.2
2017-Apr-17 12:00N 33°46' W 118°13'0 0.0
2017-Apr-17 11:30N 33°46' W 118°13'0 0.0
2017-Apr-17 11:00N 33°46' W 118°13'0 0.0
2017-Apr-17 10:30N 33°46' W 118°13'0 0.0
2017-Apr-17 09:59N 33°46' W 118°13'0 0.0
2017-Apr-17 09:30N 33°46' W 118°13'0 0.0
2017-Apr-17 09:00N 33°46' W 118°13'0 0.0
2017-Apr-17 08:30N 33°46' W 118°13'0 0.0
2017-Apr-17 08:00N 33°46' W 118°13'120010906.4
2017-Apr-17 07:54N 29°45' W 095°11'12003082.8
2017-Apr-17 07:30N 33°46' W 118°13'11997879.8
2017-Apr-17 07:21N 29°45' W 095°11'11993421.7
2017-Apr-17 07:00N 33°46' W 118°13'119863446.7
2017-Apr-17 06:59N 29°43' W 095°13'11982505.4
2017-Apr-17 06:30N 33°46' W 118°13'0 0.0
2017-Apr-17 06:01N 33°46' W 118°13'0 0.0
2017-Apr-17 05:30N 33°46' W 118°13'0 0.0
2017-Apr-17 05:00N 33°46' W 118°13'0 0.0
2017-Apr-17 04:30N 33°46' W 118°13'0 0.0
2017-Apr-17 04:00N 33°46' W 118°13'0 0.0
2017-Apr-17 03:30N 33°46' W 118°13'0 0.0
2017-Apr-17 03:00N 33°46' W 118°13'0 0.0
2017-Apr-17 02:30N 33°46' W 118°13'0 0.0
2017-Apr-17 02:00N 33°46' W 118°13'0 0.0
2017-Apr-17 01:30N 33°46' W 118°13'0 0.0
2017-Apr-17 01:00N 33°46' W 118°13'0 0.0
2017-Apr-17 00:30N 33°46' W 118°13'0 0.0
2017-Apr-17 00:00N 33°46' W 118°13'11982402.4
2017-Apr-16 23:31N 29°44' W 095°14'1198308023.4
2017-Apr-16 23:30N 33°46' W 118°13'1198179683.1
2017-Apr-16 23:30N 29°44' W 095°14'11982441.9
2017-Apr-16 23:00N 33°46' W 118°13'120026341.1
2017-Apr-16 22:58N 29°45' W 095°11'12002637.3
2017-Apr-16 22:30N 33°46' W 118°13'12049802.4
2017-Apr-16 22:23N 29°44' W 095°07'12043195.2
2017-Apr-16 22:00N 33°46' W 118°13'0 0.0
2017-Apr-16 21:30N 33°46' W 118°13'0 0.0
2017-Apr-16 21:00N 33°46' W 118°13'0 0.0
2017-Apr-16 20:30N 33°46' W 118°13'0 0.0
2017-Apr-16 20:00N 33°46' W 118°13'0 0.0
2017-Apr-16 19:31N 33°46' W 118°13'0 0.0
2017-Apr-16 19:00N 33°46' W 118°13'0 0.0
2017-Apr-16 18:30N 33°46' W 118°13'0 0.0
2017-Apr-16 18:00N 33°46' W 118°13'0 0.0
2017-Apr-16 17:28N 33°46' W 118°13'0 0.0
2017-Apr-16 17:00N 33°46' W 118°13'0 0.0
2017-Apr-16 16:30N 33°46' W 118°13'0 0.0
2017-Apr-16 16:00N 33°46' W 118°13'0 0.0
2017-Apr-16 15:30N 33°46' W 118°13'0 0.0
2017-Apr-16 15:00N 33°46' W 118°13'0 0.0
2017-Apr-16 14:30N 33°46' W 118°13'0 0.0
2017-Apr-16 13:28N 33°46' W 118°13'0 0.0
2017-Apr-16 13:00N 33°46' W 118°13'0 0.0
2017-Apr-16 12:30N 33°46' W 118°13'0 0.0
2017-Apr-16 12:00N 33°46' W 118°13'0 0.0
2017-Apr-16 11:30N 33°46' W 118°13'0 0.0
2017-Apr-16 11:00N 33°46' W 118°13'0 0.0
2017-Apr-16 10:30N 33°46' W 118°13'0 0.0
2017-Apr-16 10:00N 33°46' W 118°13'0 0.0
2017-Apr-16 09:30N 33°46' W 118°13'0 0.0
2017-Apr-16 09:00N 33°46' W 118°13'0 0.0
2017-Apr-16 08:30N 33°46' W 118°13'0 0.0
2017-Apr-16 08:00N 33°46' W 118°13'0 0.0
2017-Apr-16 07:30N 33°46' W 118°13'0 0.0
2017-Apr-16 07:00N 33°46' W 118°13'0 0.0
2017-Apr-16 06:30N 33°46' W 118°13'0 0.0
2017-Apr-16 05:59N 33°46' W 118°13'0 0.0
2017-Apr-16 05:27N 33°46' W 118°13'0 0.0
2017-Apr-16 04:12N 33°46' W 118°13'0 0.0
2017-Apr-16 03:59N 33°46' W 118°13'12038461.9
2017-Apr-16 03:50N 29°46' W 095°06'12033083.6
2017-Apr-16 03:27N 33°46' W 118°13'12032728.0
2017-Apr-16 03:01N 29°47' W 095°06'1203361005.0
2017-Apr-16 03:00N 33°46' W 118°13'12042362.3
2017-Apr-16 02:30N 29°45' W 095°06'120449825.9
2017-Apr-16 02:28N 33°46' W 118°13'0 0.0
2017-Apr-16 02:00N 33°46' W 118°13'1202120189.0
2017-Apr-16 02:00N 29°44' W 095°09'12022422.6
2017-Apr-16 01:30N 33°46' W 118°13'0 0.0
2017-Apr-16 01:00N 33°46' W 118°13'0 0.0
2017-Apr-16 00:27N 33°46' W 118°13'0 0.0
2017-Apr-15 23:59N 33°46' W 118°13'0 0.0
2017-Apr-15 23:30N 33°46' W 118°13'0 0.0
2017-Apr-15 23:00N 33°46' W 118°13'0 0.0
2017-Apr-15 22:30N 33°46' W 118°13'0 0.0
2017-Apr-15 22:00N 33°46' W 118°13'0 0.0
2017-Apr-15 21:30N 33°46' W 118°13'0 0.0
2017-Apr-15 21:01N 33°46' W 118°13'0 0.0
2017-Apr-15 20:30N 33°46' W 118°13'0 0.0
2017-Apr-15 20:00N 33°46' W 118°13'0 0.0
2017-Apr-15 19:30N 33°46' W 118°13'0 0.0
2017-Apr-15 19:00N 33°46' W 118°13'0 0.0
2017-Apr-15 18:30N 33°46' W 118°13'0 0.0
2017-Apr-15 18:00N 33°46' W 118°13'0 0.0
2017-Apr-15 17:30N 33°46' W 118°13'12018750.1
2017-Apr-15 17:21N 29°45' W 095°10'12012906.9
2017-Apr-15 16:57N 33°46' W 118°13'120018548.3
2017-Apr-15 16:53N 29°45' W 095°10'12002592.5
2017-Apr-15 16:25N 33°46' W 118°13'120038564.1
2017-Apr-15 16:23N 29°45' W 095°11'12003026.8
2017-Apr-15 15:59N 33°46' W 118°13'119913360.4
2017-Apr-15 15:54N 29°44' W 095°13'11993045.5
2017-Apr-15 15:30N 33°46' W 118°13'1196307653.8
2017-Apr-15 15:30N 29°44' W 095°15'2 3.9
2017-Apr-15 15:00N 29°45' W 095°17'1195148300.8
2017-Apr-15 15:00N 33°46' W 118°13'11942428.0
2017-Apr-15 14:30N 29°45' W 095°17'1194477781.0
2017-Apr-15 14:30N 33°46' W 118°13'0 0.0
2017-Apr-15 13:30N 33°46' W 118°13'119438053.4
2017-Apr-15 13:28N 29°45' W 095°17'11942550.4
2017-Apr-15 13:00N 33°46' W 118°13'119420000.1
2017-Apr-15 12:57N 29°45' W 095°17'11942694.2
2017-Apr-15 12:30N 33°46' W 118°13'119416288.0
2017-Apr-15 12:26N 29°45' W 095°17'11942819.7
2017-Apr-15 12:00N 33°46' W 118°13'11948704.5
2017-Apr-15 11:52N 29°45' W 095°17'0 0.0
2017-Apr-15 11:30N 29°45' W 095°17'1194614287.4
2017-Apr-15 11:30N 33°46' W 118°13'0 0.0
2017-Apr-15 11:00N 33°46' W 118°13'1194172001.2
2017-Apr-15 11:00N 29°45' W 095°17'11942423.9
2017-Apr-15 10:31N 33°46' W 118°13'119417479.8
2017-Apr-15 10:26N 29°45' W 095°17'11942763.5
2017-Apr-15 10:00N 33°46' W 118°13'11941433343.1
2017-Apr-15 10:00N 29°45' W 095°17'11942394.2
2017-Apr-15 09:30N 33°46' W 118°13'11948531.8
2017-Apr-15 09:22N 29°45' W 095°17'11943262.5
2017-Apr-15 09:00N 33°46' W 118°13'0 0.0
2017-Apr-15 08:30N 33°46' W 118°13'0 0.0
2017-Apr-15 08:00N 33°46' W 118°13'0 0.0
2017-Apr-15 07:30N 33°46' W 118°13'0 0.0
2017-Apr-15 07:00N 33°46' W 118°13'11947239.1
2017-Apr-15 06:50N 29°45' W 095°17'0 0.1
2017-Apr-15 06:30N 29°45' W 095°17'119534692.6
2017-Apr-15 06:28N 33°44' W 118°14'1 2.4
2017-Apr-15 06:00N 33°43' W 118°15'1196253243.0
2017-Apr-15 06:00N 29°44' W 095°17'11952412.2
2017-Apr-15 05:30N 33°41' W 118°14'119918205.7
2017-Apr-15 05:26N 29°44' W 095°13'11982759.8
2017-Apr-15 05:00N 33°38' W 118°14'120115602.7
2017-Apr-15 04:56N 29°45' W 095°10'12012819.2
2017-Apr-15 04:30N 33°35' W 118°14'3 6.3
2017-Apr-15 04:00N 33°32' W 118°15'3 6.2
2017-Apr-15 03:31N 33°29' W 118°16'3 6.4
2017-Apr-15 03:00N 33°26' W 118°17'3 6.5
2017-Apr-15 02:30N 33°23' W 118°17'  

Dump ship's entire track history